Weather at Pista de Montevil (Batalha)

Public forecast

Using degrees Celsius for public forecast. Weather courtesy of forecast.io.

Closest aviation weather report (METAR) to Pista de Montevil (Batalha)

Closest report is Montijo Air Base, 28.4 nm (52.6 km) NW. Retrieved 2020/09/21 11:00 UTC (21 minutes ago):

LPMT 211100Z 02005KT 330V060 9999 FEW020 24/15 Q1020

Closest aviation forecast (TAF) to Pista de Montevil (Batalha)

Closest forecast is Montijo Air Base, 28.4 nm (52.6 km) NW. Retrieved 2020/09/21 06:12 UTC (5 hours ago):

TAF LPMT 210506Z 2106/2206 VRB02KT 9999 FEW015 PROB30 2106/2109 4000 BR BKN009 BECMG 2110/2112 SCT025 BECMG 2116/2118 32010KT FEW025 BECMG 2121/2124 VRB02KT FEW008 SCT015 PROB40 2202/2206 4000 BR BKN006